Latest Weather Observations for East Sale

IDV60801

Issued at 12:35 pm EDT Saturday 1 November 2014 (issued every 30 minutes, with the page automatically refreshed every 10 minutes)

About weather observations | Map of weather stations | Latest weather observations for VIC | Other Formats
Station Details ID: 085072 Name: EAST SALE AIRPORT Lat: -38.12 Lon: 147.13 Height: 4.6 m
Data from the previous 72 hours. | See also: Recent months at East Sale
Date/Time
EDT
Temp
°C
App
Temp
°C
Dew
Point
Rel
Hum
%
Delta-T
°C
Wind Press
QNH
hPa
Press
MSL
hPa
Rain
since 9 am
mm
Dir
 
Spd
km/h
Gust
km/h
Spd
kts
Gust
kts
01/12:30pm 15.0 7.8 9.1 68 3.0 W 37 54 20 29 1003.2 - 4.8
01/12:11pm 14.3 6.9 9.9 75 2.3 W 39 57 21 31 1003.3 - 4.8
01/12:00pm 14.0 5.6 8.9 71 2.6 W 43 57 23 31 1003.4 1003.4 4.8
01/11:30am 14.5 8.5 10.9 79 1.9 WSW 33 52 18 28 1002.7 - 4.6
01/11:24am 14.5 8.8 11.9 84 1.4 W 33 52 18 28 1002.5 - 4.6
01/11:00am 13.4 8.3 11.9 91 0.8 W 30 41 16 22 1002.7 - 4.6
01/10:56am 13.4 7.9 11.7 89 0.9 W 32 41 17 22 1002.6 - 4.6
01/10:43am 13.7 8.8 12.4 92 0.7 W 30 48 16 26 1002.3 - 4.4
01/10:30am 13.8 8.8 12.3 91 0.8 WSW 30 44 16 24 1001.7 - 4.2
01/10:23am 13.8 9.3 12.5 92 0.7 WSW 28 37 15 20 1001.6 - 4.0
01/10:00am 13.6 8.9 12.1 91 0.8 W 28 43 15 23 1001.4 - 3.6
01/09:53am 13.5 8.7 11.8 89 0.9 W 28 46 15 25 1001.3 - 3.4
01/09:36am 13.4 8.4 12.1 92 0.7 W 30 39 16 21 1001.1 - 3.2
01/09:30am 13.4 8.0 12.1 92 0.7 W 32 46 17 25 1001.2 - 2.8
01/09:15am 13.7 7.8 12.4 92 0.7 W 35 56 19 30 1001.3 - 1.6
01/09:13am 13.8 7.9 12.3 91 0.8 W 35 48 19 26 1001.3 - 1.2
01/09:00am 14.1 10.4 12.8 92 0.7 W 24 37 13 20 1001.2 1001.2 1.4
01/08:30am 14.5 11.4 12.3 87 1.2 W 20 30 11 16 1000.6 - 0.4
01/08:00am 14.8 12.8 11.6 81 1.7 W 13 20 7 11 1000.6 - 0.0
01/07:30am 14.9 13.2 11.3 79 1.9 NW 11 13 6 7 999.4 - 0.0
01/07:00am 14.4 14.0 11.2 81 1.7 NNW 4 6 2 3 998.4 - 0.0
01/06:30am 13.5 11.8 10.0 79 1.8 N 9 11 5 6 999.3 - 0.0
01/06:00am 14.5 13.7 9.7 73 2.5 W 4 11 2 6 998.3 998.3 0.0
01/05:30am 15.2 11.3 9.4 68 3.0 WSW 20 30 11 16 998.4 - 0.0
01/05:00am 14.8 11.3 10.2 74 2.4 W 19 24 10 13 997.9 - 0.0
01/04:30am 16.0 12.3 10.1 68 3.1 WSW 20 30 11 16 998.2 - 0.0
01/04:02am 16.8 10.0 9.3 61 3.9 WSW 35 54 19 29 998.0 - 0.0
01/04:00am 16.9 9.7 9.2 60 4.0 WSW 37 54 20 29 998.0 - 0.0
01/03:30am 18.0 10.2 8.2 52 5.0 WSW 39 63 21 34 997.0 - 0.0
01/03:20am 17.5 10.7 9.3 58 4.3 W 35 54 19 29 996.8 - 0.0
01/03:00am 17.9 11.1 9.1 56 4.6 W 35 46 19 25 996.7 996.7 0.0
01/02:30am 18.1 - 8.9 55 4.8 - - - - - - - 0.0
01/02:00am 18.6 13.0 8.6 52 5.2 W 28 35 15 19 995.4 - 0.0
01/01:52am 16.2 10.6 10.1 67 3.2 WSW 30 43 16 23 995.5 - 0.0
01/01:30am 16.8 14.5 9.1 60 4.0 N 11 13 6 7 994.7 - 0.0
01/01:00am 16.5 14.2 9.1 61 3.8 NNE 11 13 6 7 995.6 - 0.0
01/12:30am 15.0 13.1 10.4 74 2.4 NNE 11 13 6 7 996.4 - 0.0
01/12:00am 13.8 14.3 11.7 87 1.1 CALM 0 0 0 0 997.2 997.2 0.0
 
Date/Time
EDT
Temp
°C
App
Temp
°C
Dew
Point
Rel
Hum
%
Delta-T
°C
Wind Press
QNH
hPa
Press
MSL
hPa
Rain
since 9 am
mm
Dir
 
Spd
km/h
Gust
km/h
Spd
kts
Gust
kts
31/11:30pm 13.6 11.9 11.3 86 1.2 NNE 11 13 6 7 997.7 - 0.0
31/11:00pm 13.9 11.9 11.5 85 1.3 NE 13 15 7 8 998.2 - 0.0
31/10:30pm 14.7 14.1 12.3 85 1.3 ENE 7 13 4 7 998.8 - 0.0
31/10:00pm 15.3 14.3 12.4 83 1.6 NE 9 17 5 9 999.5 - 0.0
31/09:30pm 17.2 16.0 12.7 75 2.5 E 11 15 6 8 1000.0 - 0.0
31/09:00pm 18.2 16.8 12.2 68 3.3 SE 11 15 6 8 1000.4 1000.4 0.0
31/08:30pm 17.7 14.9 11.2 65 3.5 E 17 19 9 10 1000.6 - 0.0
31/08:00pm 19.2 16.4 10.0 55 4.9 ESE 15 17 8 9 1001.1 - 0.0
31/07:30pm 19.3 16.3 10.6 57 4.7 E 17 19 9 10 1001.3 - 0.0
31/07:00pm 21.0 17.7 10.8 52 5.6 E 19 24 10 13 1001.4 - 0.0
31/06:30pm 22.5 17.9 9.5 43 7.0 E 24 28 13 15 1001.7 - 0.0
31/06:00pm 23.3 18.4 9.9 42 7.3 E 26 33 14 18 1001.8 1001.8 0.0
31/05:30pm 24.0 19.1 11.4 45 7.1 ENE 28 35 15 19 1002.1 - 0.0
31/05:00pm 24.2 20.6 12.9 49 6.5 E 24 32 13 17 1002.5 - 0.0
31/04:30pm 25.3 21.8 13.3 47 7.0 E 24 30 13 16 1002.7 - 0.0
31/04:00pm 26.5 22.7 9.9 35 9.2 E 20 26 11 14 1003.0 - 0.0
31/03:30pm 26.4 23.1 10.8 37 8.8 E 19 24 10 13 1003.5 - 0.0
31/03:00pm 25.5 22.3 11.1 40 8.1 ENE 19 22 10 12 1004.0 1004.0 0.0
31/02:30pm 25.0 23.6 13.4 48 6.8 ENE 13 20 7 11 1004.8 - 0.0
31/02:00pm 24.2 23.7 14.8 55 5.6 E 11 15 6 8 1005.5 - 0.0
31/01:30pm 22.5 21.4 13.1 55 5.4 E 11 17 6 9 1006.0 - 0.0
31/01:00pm 21.7 20.8 13.8 60 4.6 E 11 17 6 9 1006.7 - 0.0
31/12:30pm 21.4 20.3 13.2 59 4.7 ENE 11 17 6 9 1007.3 - 0.0
31/12:00pm 20.7 20.4 13.2 62 4.3 E 7 13 4 7 1007.9 1007.9 0.0
31/11:30am 19.5 18.6 12.7 65 3.8 NNE 9 13 5 7 1008.6 - 0.0
31/11:00am 18.5 17.7 12.8 69 3.2 NNE 9 15 5 8 1009.2 - 0.0
31/10:30am 17.9 17.4 12.7 71 2.9 NE 7 15 4 8 1009.6 - 0.0
31/10:00am 16.2 15.4 11.6 74 2.5 NE 7 13 4 7 1010.2 - 0.0
31/09:30am 15.0 14.0 11.1 77 2.1 NNW 7 11 4 6 1010.6 - 0.0
31/09:00am 13.1 11.6 10.6 85 1.3 NNW 9 11 5 6 1011.1 1011.1 0.0
31/08:40am 12.3 10.7 10.2 87 1.1 NNW 9 11 5 6 1011.4 - 0.0
31/08:30am 11.9 10.2 9.9 87 1.0 N 9 11 5 6 1011.3 - 0.0
31/08:00am 10.3 8.5 9.3 93 0.5 NNW 9 11 5 6 1011.6 - 0.0
31/07:30am 9.1 7.1 8.5 96 0.3 NW 9 11 5 6 1011.7 - 0.0
31/07:00am 7.7 5.7 7.1 96 0.3 NNW 7 9 4 5 1011.7 - 0.0
31/06:51am 6.6 4.0 5.9 95 0.3 NNW 9 11 5 6 1011.5 - 0.0
31/06:30am 6.8 4.2 6.1 95 0.3 N 9 11 5 6 1011.6 - 0.0
31/06:00am 7.9 7.4 7.7 99 0.1 CALM 0 0 0 0 1011.7 1011.7 0.0
31/05:35am 7.3 5.3 6.9 97 0.2 W 7 9 4 5 1011.8 - 0.0
31/05:30am 7.5 5.6 7.5 100 0.0 W 7 9 4 5 1011.7 - 0.0
31/05:15am 8.2 6.5 7.6 96 0.3 NW 6 7 3 4 1011.4 - 0.0
31/05:00am 8.1 6.4 7.5 96 0.3 WNW 6 7 3 4 1011.4 - 0.0
31/04:30am 8.0 7.4 7.6 97 0.2 CALM 0 0 0 0 1011.6 - 0.0
31/04:00am 8.2 6.6 8.0 99 0.1 SSW 6 6 3 3 1011.9 - 0.0
31/03:30am 8.7 8.2 7.9 95 0.4 CALM 0 0 0 0 1012.0 - 0.0
31/03:00am 8.7 8.3 8.3 97 0.2 CALM 0 0 0 0 1012.6 1012.6 0.0
31/02:30am 9.2 8.8 8.4 95 0.4 CALM 0 0 0 0 1012.8 - 0.0
31/02:00am 9.6 9.3 8.8 95 0.4 CALM 0 0 0 0 1013.1 - 0.0
31/01:30am 10.2 10.0 9.0 92 0.6 CALM 0 0 0 0 1013.7 - 0.0
31/01:00am 10.4 8.9 9.0 91 0.7 NE 7 7 4 4 1014.0 - 0.0
31/12:30am 11.0 9.6 9.4 90 0.8 NE 7 9 4 5 1014.2 - 0.0
31/12:00am 11.6 9.9 9.8 89 0.9 NE 9 9 5 5 1014.3 1014.3 0.0
 
Date/Time
EDT
Temp
°C
App
Temp
°C
Dew
Point
Rel
Hum
%
Delta-T
°C
Wind Press
QNH
hPa
Press
MSL
hPa
Rain
since 9 am
mm
Dir
 
Spd
km/h
Gust
km/h
Spd
kts
Gust
kts
30/11:30pm 12.4 10.3 9.6 83 1.4 NE 11 11 6 6 1014.3 - 0.0
30/11:00pm 12.1 9.6 9.7 85 1.2 NE 13 19 7 10 1014.5 - 0.0
30/10:30pm 12.2 9.3 9.8 85 1.2 NE 15 19 8 10 1014.5 - 0.0
30/10:00pm 12.5 9.7 10.0 85 1.3 NE 15 17 8 9 1014.6 - 0.0
30/09:30pm 12.2 9.3 9.8 85 1.2 NE 15 19 8 10 1014.6 - 0.0
30/09:00pm 14.0 10.8 9.9 76 2.1 NE 17 20 9 11 1014.3 1014.3 0.0
30/08:30pm 14.5 11.1 10.5 77 2.1 ENE 19 24 10 13 1014.4 - 0.0
30/08:00pm 14.6 11.2 10.6 77 2.1 ENE 19 22 10 12 1014.0 - 0.0
30/07:30pm 14.9 11.4 10.9 77 2.1 NE 20 26 11 14 1013.6 - 0.0
30/07:00pm 16.1 12.9 11.3 73 2.6 NE 19 20 10 11 1013.4 - 0.0
30/06:30pm 18.0 14.6 11.2 64 3.7 ENE 20 26 11 14 1013.2 - 0.0
30/06:00pm 18.5 16.0 11.1 62 4.0 ENE 15 20 8 11 1013.0 1013.0 0.0
30/05:30pm 18.7 15.5 11.2 61 4.1 ESE 19 26 10 14 1012.8 - 0.0
30/05:00pm 18.9 15.4 11.0 60 4.3 ESE 20 26 11 14 1012.7 - 0.0
30/04:30pm 18.7 15.5 11.4 62 4.0 ESE 19 26 10 14 1012.3 - 0.0
30/04:00pm 19.0 15.7 11.7 62 4.0 ESE 20 28 11 15 1012.2 - 0.0
30/03:30pm 19.0 15.7 11.5 61 4.1 E 20 26 11 14 1012.2 - 0.0
30/03:00pm 19.6 16.1 12.3 62 4.1 ENE 22 28 12 15 1012.2 1012.2 0.0
30/02:30pm 19.0 15.9 12.2 64 3.8 E 20 30 11 16 1012.4 - 0.0
30/02:00pm 20.3 18.4 12.9 62 4.2 W 15 22 8 12 1012.7 - 0.0
30/01:30pm 20.3 17.5 11.2 56 5.0 WSW 17 24 9 13 1013.0 - 0.0
30/01:00pm 20.2 17.3 11.1 56 5.0 W 17 24 9 13 1013.1 - 0.0
30/12:30pm 19.6 15.6 10.5 55 4.9 W 22 30 12 16 1013.2 - 0.0
30/12:00pm 19.3 15.8 11.0 58 4.5 WSW 20 30 11 16 1013.7 1013.7 0.0
30/11:30am 18.3 14.2 10.0 58 4.4 WSW 22 30 12 16 1014.2 - 0.0
30/11:00am 17.9 13.4 10.2 60 4.1 W 24 35 13 19 1014.4 - 0.0
30/10:30am 17.4 14.0 10.5 64 3.7 WSW 19 30 10 16 1014.7 - 0.0
30/10:00am 16.3 12.7 10.4 68 3.1 W 20 28 11 15 1014.6 - 0.0
30/09:30am 15.7 12.7 10.8 72 2.6 W 17 24 9 13 1014.9 - 0.0
30/09:00am 14.2 12.3 10.4 78 2.0 NW 11 17 6 9 1015.2 1015.2 0.0
30/08:30am 13.2 11.7 10.7 85 1.3 NW 9 11 5 6 1015.2 - 0.0
30/08:00am 11.6 10.0 10.2 91 0.7 NW 9 9 5 5 1015.1 - 0.0
30/07:30am 10.1 8.2 9.1 93 0.5 NNW 9 13 5 7 1014.8 - 0.0
30/07:00am 9.7 7.4 9.1 96 0.3 NNW 11 13 6 7 1014.6 - 0.0
30/06:30am 8.3 6.1 7.9 97 0.2 NNW 9 13 5 7 1014.6 - 0.0
30/06:00am 8.3 7.1 7.9 97 0.2 WNW 4 7 2 4 1014.6 1014.6 0.0
30/05:30am 8.4 6.8 8.0 97 0.2 NW 6 6 3 3 1014.4 - 0.0
30/05:00am 8.6 7.1 8.4 99 0.1 NW 6 7 3 4 1014.3 - 0.0
30/04:30am 9.5 7.9 8.7 95 0.4 NW 7 9 4 5 1014.5 - 0.0
30/04:00am 10.2 8.8 9.4 95 0.4 WNW 7 7 4 4 1014.6 - 0.0
30/03:30am 11.1 9.7 9.5 90 0.8 NNW 7 9 4 5 1014.6 - 0.0
30/03:00am 11.3 9.5 9.5 89 0.9 WNW 9 9 5 5 1014.8 1014.8 0.0
30/02:30am 11.2 9.0 9.2 87 1.0 WNW 11 11 6 6 1015.1 - 0.0
30/02:00am 12.0 10.7 9.8 86 1.1 NW 7 9 4 5 1015.3 - 0.0
30/01:30am 12.4 10.8 10.1 86 1.2 NW 9 11 5 6 1015.7 - 0.0
30/01:00am 12.3 10.6 10.0 86 1.2 NW 9 11 5 6 1015.9 - 0.0
30/12:30am 12.2 10.9 9.8 85 1.2 N 7 9 4 5 1016.0 - 0.0
30/12:00am 12.4 11.0 9.6 83 1.4 NNW 7 9 4 5 1016.2 1016.2 0.0
 
Date/Time
EDT
Temp
°C
App
Temp
°C
Dew
Point
Rel
Hum
%
Delta-T
°C
Wind Press
QNH
hPa
Press
MSL
hPa
Rain
since 9 am
mm
Dir
 
Spd
km/h
Gust
km/h
Spd
kts
Gust
kts
29/11:30pm 12.1 10.8 9.9 86 1.1 NNE 7 9 4 5 1016.5 - 0.0
29/11:00pm 11.5 9.7 9.5 87 1.0 NNE 9 13 5 7 1016.4 - 0.0
29/10:30pm 11.8 9.3 9.8 87 1.0 NNE 13 15 7 8 1016.5 - 0.0
29/10:00pm 12.2 9.0 9.8 85 1.2 NNE 17 20 9 11 1016.5 - 0.0
29/09:30pm 12.8 9.6 10.1 84 1.4 NNE 17 20 9 11 1016.3 - 0.0
29/09:00pm 13.1 10.0 10.4 84 1.4 NNE 17 20 9 11 1016.2 1016.2 0.0
29/08:30pm 13.9 10.5 10.5 80 1.8 NE 19 20 10 11 1015.8 - 0.0
29/08:00pm 14.4 11.9 11.0 80 1.8 NNE 15 19 8 10 1015.7 - 0.0
29/07:30pm 14.3 11.8 10.9 80 1.8 NE 15 17 8 9 1015.4 - 0.0
29/07:00pm 15.4 12.5 11.1 75 2.3 ENE 17 20 9 11 1015.0 - 0.0
29/06:30pm 17.0 13.7 10.8 67 3.3 E 19 20 10 11 1014.6 - 0.0
29/06:00pm 16.5 13.1 10.5 67 3.2 E 19 24 10 13 1014.6 1014.6 0.0
29/05:30pm 17.7 13.9 11.0 65 3.6 E 22 28 12 15 1014.5 - 0.0
29/05:00pm 17.9 14.4 10.8 63 3.8 E 20 24 11 13 1014.4 - 0.0
29/04:30pm 20.3 18.8 9.1 48 5.9 SSW 7 24 4 13 1014.3 - 0.0
29/04:00pm 20.0 17.3 9.0 49 5.8 WSW 13 17 7 9 1014.4 - 0.0
29/03:30pm 19.8 17.1 9.0 49 5.7 WSW 13 17 7 9 1014.6 - 0.0
29/03:00pm 19.4 16.6 8.4 49 5.7 W 13 22 7 12 1015.0 1015.0 0.0
29/02:30pm 19.0 15.8 8.4 50 5.5 WSW 15 20 8 11 1015.3 - 0.0
29/02:00pm 18.5 14.5 8.2 51 5.3 SW 19 28 10 15 1015.8 - 0.0
29/01:30pm 18.1 13.9 7.6 50 5.3 WSW 19 26 10 14 1016.3 1016.3 0.0
29/01:00pm 17.5 13.0 7.1 50 5.2 WSW 20 30 11 16 1016.4 1016.4 0.0

Other Formats:

Comma delimited format used in spreadsheet applications
http://www.bom.gov.au/fwo/IDV60801/IDV60801.94907.axf

JavaScript Object Notation format (JSON) in row-major order
http://www.bom.gov.au/fwo/IDV60801/IDV60801.94907.json